Terminal Aerodrome Forecast
Issued by NWS

Home | Current Version | Previous Version | Text Only | Print | Product List | Glossary On
Versions: 1 2 3 4 5 6 7 8 9 10 11 12 13 14 15 16 17 18 19
000
FTUS43 KICT 310855 AAA
TAFCNU
TAF AMD
KCNU 310855Z 3109/0106 13006KT P6SM BKN250
      TEMPO 3109/3113 2SM BR BKN250
     FM311800 15007KT P6SM VCTS BKN040CB
     FM010300 VRB03KT P6SM BKN100=

USA.gov is the U.S. government's official web portal to all federal, state and local government web resources and services.